Time;durP1;ratioP1;P1;durP2;ratioP2;P2;SDS_P1;SDS_P2;PMS_P1;PMS_P2;Temp;Humidity;BMP_temperature;BMP_pressure;BME280_temperature;BME280_humidity;BME280_pressure;Samples;Min_cycle;Max_cycle;Signal;HPM_P1;HPM_P2
2022/01/31 00:01:36;;;;;;;4.35;3.85;;;24.00;80.40;;;;;;5014630;28;96574;-42
2022/01/31 00:04:06;;;;;;;4.32;3.50;;;23.90;79.40;;;;;;5019223;28;95856;-44
2022/01/31 00:06:36;;;;;;;3.75;3.45;;;24.00;79.00;;;;;;5019259;28;96394;-43
2022/01/31 00:09:14;;;;;;;4.55;3.80;;;23.90;77.70;;;;;;5020749;28;96360;-43
2022/01/31 00:11:55;;;;;;;5.35;3.63;;;23.90;77.00;;;;;;5020674;27;96206;-43
2022/01/31 00:17:06;;;;;;;4.00;3.67;;;23.90;75.10;;;;;;5015153;28;95888;-43
2022/01/31 00:19:38;;;;;;;4.07;3.13;;;23.90;73.60;;;;;;5018947;28;95705;-45
2022/01/31 00:22:12;;;;;;;3.05;2.80;;;23.80;73.40;;;;;;5017558;28;97281;-44
2022/01/31 00:24:42;;;;;;;5.53;3.08;;;23.90;62.70;;;;;;5020674;28;96201;-44
2022/01/31 00:27:14;;;;;;;6.00;3.33;;;23.90;71.80;;;;;;5021229;28;96034;-50
2022/01/31 00:29:45;;;;;;;3.67;3.38;;;23.90;71.90;;;;;;5019716;27;96343;-51
2022/01/31 00:32:21;;;;;;;3.58;3.00;;;23.90;71.30;;;;;;4993663;28;98392;-48
2022/01/31 00:34:53;;;;;;;3.58;3.05;;;23.90;70.60;;;;;;5018398;27;96082;-43
2022/01/31 00:37:24;;;;;;;3.97;3.13;;;24.00;70.60;;;;;;5018852;28;95760;-45
2022/01/31 00:39:56;;;;;;;3.67;3.38;;;24.00;70.20;;;;;;5018539;27;95701;-49
2022/01/31 00:42:29;;;;;;;3.13;2.72;;;24.10;70.00;;;;;;5005195;28;96894;-45
2022/01/31 00:45:12;;;;;;;3.45;3.15;;;24.10;69.30;;;;;;5015394;27;96122;-45
2022/01/31 00:47:47;;;;;;;3.00;2.80;;;24.10;69.00;;;;;;5012144;28;96403;-48
2022/01/31 00:50:19;;;;;;;2.97;2.78;;;24.10;68.80;;;;;;5020283;27;96368;-45
2022/01/31 00:52:50;;;;;;;2.90;2.58;;;24.10;68.30;;;;;;5011980;28;97235;-45
2022/01/31 00:55:22;;;;;;;2.90;2.70;;;24.20;68.10;;;;;;4998193;28;96203;-47
2022/01/31 00:57:52;;;;;;;2.95;2.75;;;24.20;67.50;;;;;;5001577;28;96038;-45
2022/01/31 01:00:22;;;;;;;2.77;2.40;;;24.20;67.10;;;;;;4995785;28;96295;-45
2022/01/31 01:02:52;;;;;;;3.40;2.60;;;24.20;66.60;;;;;;5009358;28;98879;-46
2022/01/31 01:05:24;;;;;;;2.70;2.50;;;24.30;66.60;;;;;;5019420;27;95643;-46
2022/01/31 01:07:54;;;;;;;2.40;2.20;;;24.30;66.50;;;;;;5000275;28;96501;-46
2022/01/31 01:10:24;;;;;;;2.88;2.25;;;24.20;67.00;;;;;;4999819;28;96647;-49
2022/01/31 01:12:56;;;;;;;4.95;2.63;;;24.20;66.20;;;;;;5003456;28;98501;-48
2022/01/31 01:15:27;;;;;;;2.30;2.10;;;24.20;66.00;;;;;;4999667;28;97888;-49
2022/01/31 01:17:58;;;;;;;3.33;2.58;;;24.20;65.50;;;;;;4995657;28;95994;-47
2022/01/31 01:20:30;;;;;;;2.17;2.08;;;24.20;64.80;;;;;;5016689;28;95779;-47
2022/01/31 01:23:02;;;;;;;2.70;2.50;;;24.20;64.60;;;;;;5016234;27;96264;-47
2022/01/31 01:25:33;;;;;;;3.35;2.00;;;24.20;64.30;;;;;;5017384;28;95336;-47
2022/01/31 01:28:05;;;;;;;2.35;2.03;;;24.10;64.30;;;;;;4984624;28;95980;-47
2022/01/31 01:30:35;;;;;;;1.88;1.77;;;24.20;63.90;;;;;;4997051;27;98003;-50
2022/01/31 01:33:18;;;;;;;2.30;2.15;;;24.20;64.70;;;;;;5017463;27;96951;-44
2022/01/31 01:35:53;;;;;;;2.25;2.13;;;24.40;64.70;;;;;;4997714;28;95821;-45
2022/01/31 01:38:29;;;;;;;2.08;1.98;;;24.60;55.20;;;;;;5015263;27;95861;-46
2022/01/31 01:41:01;;;;;;;1.88;1.77;;;24.60;64.40;;;;;;4997754;27;96046;-43
2022/01/31 01:43:34;;;;;;;3.05;2.00;;;24.70;64.20;;;;;;5017838;28;96159;-49
2022/01/31 01:46:06;;;;;;;1.83;1.70;;;24.80;64.90;;;;;;5016402;27;98259;-46
2022/01/31 01:48:38;;;;;;;2.00;1.90;;;25.00;64.70;;;;;;5015000;28;98256;-46
2022/01/31 01:51:12;;;;;;;1.88;1.77;;;25.00;64.50;;;;;;5017777;28;98329;-51
2022/01/31 01:53:43;;;;;;;1.90;1.80;;;25.10;64.50;;;;;;5008412;28;96892;-52
2022/01/31 01:56:15;;;;;;;1.90;1.80;;;25.20;64.40;;;;;;5019827;28;96034;-44
2022/01/31 01:58:48;;;;;;;1.75;1.65;;;25.20;64.10;;;;;;5021732;28;95796;-42
2022/01/31 02:01:19;;;;;;;2.00;1.90;;;25.30;64.00;;;;;;4988180;28;99282;-41
2022/01/31 02:04:01;;;;;;;8.75;1.92;;;25.30;63.70;;;;;;5019524;27;96375;-40
2022/01/31 02:06:43;;;;;;;1.58;1.48;;;25.40;54.00;;;;;;5001191;28;99664;-42
2022/01/31 02:09:23;;;;;;;2.08;1.58;;;25.40;63.50;;;;;;5021158;28;96016;-41
2022/01/31 02:11:55;;;;;;;1.70;1.60;;;25.30;62.40;;;;;;5003605;27;95930;-41
2022/01/31 02:14:26;;;;;;;1.85;1.75;;;25.30;62.80;;;;;;5004431;28;98268;-44
2022/01/31 02:17:33;;;;;;;1.50;1.40;;;25.40;62.70;;;;;;4978912;28;96687;-43
2022/01/31 02:20:12;;;;;;;1.50;1.40;;;25.40;62.40;;;;;;5000229;27;95868;-43
2022/01/31 02:22:45;;;;;;;1.63;1.52;;;25.50;62.30;;;;;;5013089;28;95311;-42
2022/01/31 02:25:26;;;;;;;1.95;1.77;;;25.50;62.00;;;;;;5002560;28;96114;-49
2022/01/31 02:28:39;;;;;;;1.10;1.10;;;25.50;61.20;;;;;;5023151;28;96224;-45
2022/01/31 02:31:11;;;;;;;1.85;1.75;;;25.40;60.70;;;;;;5024538;27;95676;-47
2022/01/31 02:33:43;;;;;;;1.98;1.80;;;25.30;60.50;;;;;;5008245;28;96188;-49
2022/01/31 02:36:14;;;;;;;1.45;1.35;;;25.20;60.40;;;;;;4999761;28;98096;-46
2022/01/31 02:38:44;;;;;;;;;;;25.20;61.00;;;;;;5020349;27;96075;-42
2022/01/31 02:41:15;;;;;;;2.67;1.50;;;25.20;60.50;;;;;;5000098;28;96212;-41
2022/01/31 02:43:49;;;;;;;6.00;2.33;;;25.20;61.20;;;;;;5023393;28;95873;-42
2022/01/31 02:46:26;;;;;;;3.25;1.50;;;25.40;61.10;;;;;;4996317;28;96675;-43
2022/01/31 02:48:59;;;;;;;2.28;1.55;;;25.50;61.10;;;;;;5011241;28;98456;-40
2022/01/31 02:51:31;;;;;;;1.50;1.40;;;25.60;60.70;;;;;;5003159;28;95837;-42
2022/01/31 02:54:03;;;;;;;1.40;1.30;;;25.70;50.10;;;;;;5002249;28;95837;-43
2022/01/31 02:56:36;;;;;;;2.55;1.70;;;25.70;60.70;;;;;;5021928;27;96755;-40
2022/01/31 02:59:09;;;;;;;1.75;1.60;;;25.80;60.70;;;;;;5022960;28;96167;-40
2022/01/31 03:01:40;;;;;;;1.40;1.25;;;25.90;60.60;;;;;;5025728;27;95844;-42
2022/01/31 03:04:10;;;;;;;1.70;1.60;;;26.00;60.40;;;;;;5023596;28;95468;-41
2022/01/31 03:06:47;;;;;;;2.80;1.25;;;26.10;60.30;;;;;;5022705;27;96541;-40
2022/01/31 03:09:22;;;;;;;1.48;1.40;;;26.30;60.20;;;;;;5003367;28;98667;-40
2022/01/31 03:11:54;;;;;;;1.48;1.38;;;26.40;60.00;;;;;;5010173;28;95417;-39
2022/01/31 03:14:28;;;;;;;1.40;1.30;;;26.40;59.90;;;;;;5004013;28;95650;-40
2022/01/31 03:17:04;;;;;;;;;;;26.50;59.70;;;;;;4997867;28;98510;-41
2022/01/31 03:19:42;;;;;;;1.73;1.25;;;26.50;59.50;;;;;;5012307;28;96187;-41
2022/01/31 03:22:13;;;;;;;1.48;1.38;;;26.60;59.30;;;;;;5028343;27;96156;-42
2022/01/31 03:24:45;;;;;;;1.77;1.67;;;26.70;59.00;;;;;;5022156;27;97442;-41
2022/01/31 03:27:17;;;;;;;1.20;1.17;;;26.70;58.90;;;;;;4987911;28;96976;-44
2022/01/31 03:29:49;;;;;;;1.40;1.30;;;26.90;59.00;;;;;;4998275;28;97216;-43
2022/01/31 03:32:22;;;;;;;1.27;1.17;;;26.90;47.60;;;;;;5014498;28;96087;-43
2022/01/31 03:34:54;;;;;;;1.30;1.20;;;26.80;47.80;;;;;;5002867;28;95750;-43
2022/01/31 03:37:25;;;;;;;1.42;1.33;;;26.70;57.90;;;;;;5019565;28;97714;-40
2022/01/31 03:39:57;;;;;;;1.42;1.33;;;26.80;57.70;;;;;;5013499;27;97286;-45
2022/01/31 03:42:29;;;;;;;1.30;1.20;;;26.80;57.60;;;;;;5016777;27;96747;-43
2022/01/31 03:45:01;;;;;;;1.40;1.33;;;26.70;56.90;;;;;;5020620;27;95967;-45
2022/01/31 03:47:33;;;;;;;1.10;1.10;;;26.60;57.10;;;;;;5017089;27;96845;-43
2022/01/31 03:50:05;;;;;;;1.83;1.40;;;26.60;57.20;;;;;;5001301;27;99235;-43
2022/01/31 03:52:35;;;;;;;1.70;1.42;;;26.50;56.80;;;;;;5010010;28;95774;-43
2022/01/31 03:55:06;;;;;;;1.30;1.20;;;26.50;56.60;;;;;;5022529;28;95907;-43
2022/01/31 03:57:38;;;;;;;1.20;1.20;;;26.50;56.50;;;;;;4999260;28;96789;-43
2022/01/31 04:00:26;;;;;;;1.20;1.20;;;26.40;56.50;;;;;;5011188;27;96135;-42
2022/01/31 04:02:56;;;;;;;1.30;1.30;;;26.40;56.30;;;;;;5018488;28;95356;-44
2022/01/31 04:05:28;;;;;;;1.10;1.10;;;26.40;56.10;;;;;;5017880;28;96792;-43
2022/01/31 04:07:58;;;;;;;1.40;1.35;;;26.40;56.10;;;;;;5018692;27;96091;-42
2022/01/31 04:10:29;;;;;;;1.20;1.20;;;26.40;56.10;;;;;;5019687;28;95851;-48
2022/01/31 04:13:00;;;;;;;3.20;1.30;;;26.40;55.90;;;;;;5017427;27;96215;-43
2022/01/31 04:15:30;;;;;;;1.27;1.20;;;26.40;55.80;;;;;;5008872;27;95860;-43
2022/01/31 04:18:01;;;;;;;1.40;1.30;;;26.30;55.90;;;;;;5017082;28;95754;-42
2022/01/31 04:20:32;;;;;;;1.05;0.95;;;26.40;56.80;;;;;;5018982;28;95847;-42
2022/01/31 04:23:14;;;;;;;1.42;1.40;;;26.40;56.90;;;;;;5001134;28;95952;-44
2022/01/31 04:28:32;;;;;;;1.25;1.15;;;26.60;56.50;;;;;;5018038;28;97927;-42
2022/01/31 04:33:45;;;;;;;1.75;1.00;;;26.70;56.20;;;;;;5016576;27;96052;-43
2022/01/31 04:36:17;;;;;;;1.15;1.05;;;26.70;56.00;;;;;;5015613;28;95760;-43
2022/01/31 04:38:50;;;;;;;1.38;1.27;;;26.70;55.10;;;;;;5019697;27;96117;-48
2022/01/31 04:41:21;;;;;;;1.00;1.00;;;26.70;55.80;;;;;;5017887;28;95769;-44
2022/01/31 04:43:55;;;;;;;1.45;1.35;;;26.70;55.50;;;;;;5018743;28;96352;-43
2022/01/31 04:46:25;;;;;;;1.98;1.25;;;26.70;55.60;;;;;;5014521;28;95694;-45
2022/01/31 04:48:55;;;;;;;;;;;26.80;55.40;;;;;;5018222;28;95784;-42
2022/01/31 04:51:25;;;;;;;1.75;1.20;;;26.80;55.00;;;;;;5017752;27;95947;-42
2022/01/31 04:53:55;;;;;;;1.00;1.00;;;26.70;55.30;;;;;;5019249;28;96497;-48
2022/01/31 04:56:28;;;;;;;1.20;1.10;;;26.80;54.60;;;;;;5018531;28;96531;-47
2022/01/31 04:58:59;;;;;;;0.90;0.90;;;26.70;54.50;;;;;;5019056;27;95835;-47
2022/01/31 05:01:29;;;;;;;1.13;1.00;;;26.80;54.90;;;;;;5011940;27;96381;-48
2022/01/31 05:03:59;;;;;;;1.40;0.93;;;26.80;54.70;;;;;;5017522;27;95923;-47
2022/01/31 05:06:34;;;;;;;0.70;0.70;;;26.70;54.10;;;;;;5017081;28;96351;-45
2022/01/31 05:09:06;;;;;;;1.10;1.10;;;26.70;41.30;;;;;;5016476;28;95776;-47
2022/01/31 05:11:37;;;;;;;0.95;0.95;;;26.60;54.10;;;;;;5019445;28;96591;-46
2022/01/31 05:14:07;;;;;;;0.98;0.93;;;26.50;53.90;;;;;;5016426;28;96365;-47
2022/01/31 05:16:38;;;;;;;1.08;1.00;;;26.50;53.90;;;;;;5010051;28;95794;-48
2022/01/31 05:19:10;;;;;;;1.90;1.20;;;26.50;53.90;;;;;;5014759;27;95880;-47
2022/01/31 05:21:40;;;;;;;1.88;1.00;;;26.50;54.70;;;;;;5015531;28;96859;-44
2022/01/31 05:24:12;;;;;;;1.20;1.17;;;26.60;55.10;;;;;;5017327;28;95865;-47
2022/01/31 05:26:43;;;;;;;1.20;1.10;;;26.60;54.60;;;;;;5022592;28;96008;-44
2022/01/31 05:29:14;;;;;;;1.88;0.88;;;26.60;54.40;;;;;;5019307;27;96363;-43
2022/01/31 05:31:48;;;;;;;0.90;0.90;;;26.70;53.90;;;;;;5011647;28;97996;-45
2022/01/31 05:34:20;;;;;;;0.90;0.82;;;26.70;53.60;;;;;;5019362;28;95310;-42
2022/01/31 05:36:54;;;;;;;2.65;1.10;;;26.70;53.50;;;;;;5017577;28;97931;-43
2022/01/31 05:39:26;;;;;;;0.95;0.88;;;26.70;53.40;;;;;;5016408;27;95828;-43
2022/01/31 05:41:59;;;;;;;0.90;0.90;;;26.70;53.30;;;;;;5017247;28;95906;-44
2022/01/31 05:44:30;;;;;;;0.80;0.80;;;26.70;53.10;;;;;;5019179;27;95766;-44
2022/01/31 05:47:03;;;;;;;0.82;0.82;;;26.70;53.70;;;;;;5014057;28;96341;-41
2022/01/31 05:49:35;;;;;;;0.80;0.80;;;26.70;53.40;;;;;;5018821;27;95889;-43
2022/01/31 05:52:07;;;;;;;1.00;1.00;;;26.70;53.30;;;;;;5016917;27;96045;-44
2022/01/31 05:54:40;;;;;;;2.72;1.00;;;26.70;53.20;;;;;;5017722;28;95761;-49
2022/01/31 05:57:12;;;;;;;0.80;0.80;;;26.70;52.90;;;;;;5019216;28;96145;-43
2022/01/31 05:59:43;;;;;;;0.80;0.80;;;26.80;52.70;;;;;;5018941;27;97093;-42
2022/01/31 06:02:12;;;;;;;0.70;0.70;;;26.80;52.80;;;;;;5016314;28;95587;-45
2022/01/31 06:04:43;;;;;;;1.03;1.00;;;26.70;52.70;;;;;;5024613;27;95665;-45
2022/01/31 06:07:13;;;;;;;1.50;0.70;;;26.70;52.90;;;;;;5025175;27;96327;-43
2022/01/31 06:09:42;;;;;;;0.70;0.70;;;26.70;52.60;;;;;;5022658;28;96625;-48
2022/01/31 06:12:15;;;;;;;0.67;0.67;;;26.70;52.60;;;;;;5020557;28;95955;-44
2022/01/31 06:14:46;;;;;;;0.90;0.90;;;26.60;52.40;;;;;;5022995;27;96027;-43
2022/01/31 06:17:19;;;;;;;0.82;0.82;;;26.80;39.30;;;;;;5004572;28;96331;-43
2022/01/31 06:19:51;;;;;;;0.80;0.80;;;26.70;52.60;;;;;;5009209;28;96167;-43
2022/01/31 06:22:22;;;;;;;0.88;0.88;;;26.90;52.90;;;;;;5022843;27;95994;-44
2022/01/31 06:24:55;;;;;;;0.90;0.80;;;27.00;53.00;;;;;;5021214;27;95822;-44
2022/01/31 06:27:35;;;;;;;0.85;0.85;;;27.20;53.10;;;;;;5021016;27;96493;-44
2022/01/31 06:30:07;;;;;;;1.00;1.00;;;27.20;52.90;;;;;;5024086;27;98400;-45
2022/01/31 06:32:39;;;;;;;0.88;0.88;;;27.20;52.90;;;;;;4995117;28;98237;-46
2022/01/31 06:35:13;;;;;;;2.08;0.60;;;27.30;53.10;;;;;;5021954;28;95861;-42
2022/01/31 06:37:44;;;;;;;1.50;1.10;;;27.30;52.60;;;;;;5021641;28;95986;-47
2022/01/31 06:40:17;;;;;;;0.60;0.60;;;27.20;52.10;;;;;;5022594;28;97019;-43
2022/01/31 06:42:48;;;;;;;1.13;1.10;;;27.20;51.90;;;;;;5011081;28;96635;-43
2022/01/31 06:45:19;;;;;;;0.70;0.70;;;27.10;51.60;;;;;;5012645;28;96491;-42
2022/01/31 06:47:51;;;;;;;1.08;1.00;;;27.10;51.50;;;;;;5024556;28;95623;-43
2022/01/31 06:50:23;;;;;;;0.80;0.80;;;27.00;51.50;;;;;;5015423;28;96334;-50
2022/01/31 06:52:55;;;;;;;0.95;0.80;;;27.00;51.40;;;;;;5024089;28;97171;-45
2022/01/31 06:55:28;;;;;;;0.88;0.88;;;27.10;51.10;;;;;;5022750;28;96059;-44
2022/01/31 06:58:02;;;;;;;0.80;0.80;;;27.10;51.10;;;;;;5022518;28;96402;-44
2022/01/31 07:00:32;;;;;;;0.80;0.80;;;27.10;50.90;;;;;;5001413;28;97002;-49
2022/01/31 07:03:05;;;;;;;2.08;0.70;;;27.10;51.20;;;;;;5021173;27;95740;-46
2022/01/31 07:05:36;;;;;;;1.70;0.82;;;27.20;51.20;;;;;;5023203;27;95612;-45
2022/01/31 07:08:12;;;;;;;0.80;0.80;;;27.10;51.40;;;;;;5021918;27;96331;-44
2022/01/31 07:10:50;;;;;;;0.98;0.70;;;27.20;51.50;;;;;;5021629;28;95946;-42
2022/01/31 07:16:05;;;;;;;0.88;0.88;;;27.20;51.00;;;;;;5016734;28;95945;-48
2022/01/31 07:18:38;;;;;;;3.63;0.88;;;27.10;50.60;;;;;;5020171;28;96087;-48
2022/01/31 07:21:13;;;;;;;2.28;0.95;;;27.00;50.80;;;;;;5021850;28;99051;-53
2022/01/31 07:24:47;;;;;;;0.95;0.95;;;27.00;50.50;;;;;;5019649;27;95859;-55
2022/01/31 07:26:46;;;;;;;2.42;1.00;;;27.00;49.80;;;;;;5002663;28;95996;-53
2022/01/31 07:29:20;;;;;;;0.88;0.80;;;26.90;49.50;;;;;;5022106;27;95552;-51
2022/01/31 07:31:54;;;;;;;1.45;0.90;;;26.80;49.60;;;;;;5015277;27;96839;-53
2022/01/31 07:34:26;;;;;;;0.98;0.63;;;26.80;49.80;;;;;;5017668;27;96669;-51
2022/01/31 07:36:57;;;;;;;0.70;0.70;;;26.80;50.30;;;;;;5018320;28;95840;-53
2022/01/31 07:39:28;;;;;;;0.93;0.90;;;26.90;50.30;;;;;;5020521;28;96101;-53
2022/01/31 07:42:00;;;;;;;0.70;0.70;;;27.00;50.40;;;;;;5019163;27;96702;-53
2022/01/31 07:44:31;;;;;;;0.88;0.88;;;27.10;50.60;;;;;;5019329;27;95960;-52
2022/01/31 07:47:01;;;;;;;0.80;0.80;;;27.10;50.70;;;;;;5013230;28;97412;-53
2022/01/31 07:49:32;;;;;;;;;;;27.20;50.90;;;;;;5019839;27;95965;-54
2022/01/31 07:52:02;;;;;;;0.65;0.65;;;27.20;51.00;;;;;;5012522;27;96089;-54
2022/01/31 07:54:33;;;;;;;1.10;0.70;;;27.20;51.10;;;;;;5013480;28;95807;-54
2022/01/31 07:57:05;;;;;;;1.27;0.70;;;27.20;51.20;;;;;;5016884;27;95731;-55
2022/01/31 07:59:55;;;;;;;0.82;0.70;;;27.30;51.50;;;;;;5015769;28;95885;-54
2022/01/31 08:02:27;;;;;;;0.80;0.73;;;27.30;51.60;;;;;;5010460;28;96613;-54
2022/01/31 08:04:58;;;;;;;0.77;0.77;;;27.30;51.60;;;;;;5014593;28;96189;-54
2022/01/31 08:07:29;;;;;;;0.80;0.60;;;27.30;51.80;;;;;;5013964;27;96012;-53
2022/01/31 08:10:02;;;;;;;1.15;1.05;;;27.40;51.90;;;;;;5015001;27;96371;-52
2022/01/31 08:12:36;;;;;;;0.75;0.75;;;27.40;52.00;;;;;;5016914;27;96664;-53
2022/01/31 08:15:09;;;;;;;0.77;0.77;;;27.40;52.80;;;;;;5016854;28;95554;-54
2022/01/31 08:17:40;;;;;;;1.27;0.70;;;27.40;52.20;;;;;;4991622;28;95492;-56
2022/01/31 08:20:12;;;;;;;0.98;0.65;;;27.40;52.30;;;;;;5006453;28;95829;-54
2022/01/31 08:22:43;;;;;;;0.50;0.50;;;27.40;52.30;;;;;;5018940;27;96759;-56
2022/01/31 08:25:15;;;;;;;0.73;0.73;;;27.50;46.10;;;;;;5015317;28;95836;-55
2022/01/31 08:27:49;;;;;;;0.70;0.70;;;27.40;52.60;;;;;;5017388;27;95810;-57
2022/01/31 08:30:25;;;;;;;0.60;0.60;;;27.40;52.60;;;;;;5017038;28;96659;-51
2022/01/31 08:33:01;;;;;;;1.15;0.73;;;27.40;52.70;;;;;;5009208;28;96827;-54
2022/01/31 08:35:50;;;;;;;0.63;0.63;;;27.40;52.70;;;;;;5006863;28;96320;-57
2022/01/31 08:38:22;;;;;;;0.77;0.77;;;27.40;52.70;;;;;;5019167;27;95899;-53
2022/01/31 08:40:53;;;;;;;0.73;0.73;;;27.40;52.80;;;;;;5015842;28;95640;-53
2022/01/31 08:43:26;;;;;;;0.60;0.60;;;27.40;52.90;;;;;;5016317;28;96085;-52
2022/01/31 08:45:58;;;;;;;0.82;0.68;;;27.40;52.90;;;;;;5012806;27;96052;-57
2022/01/31 08:48:30;;;;;;;0.80;0.80;;;27.40;52.90;;;;;;5009123;28;95943;-54
2022/01/31 08:51:03;;;;;;;0.50;0.50;;;27.40;53.00;;;;;;5018691;27;95691;-52
2022/01/31 08:53:35;;;;;;;0.93;0.47;;;27.40;53.00;;;;;;5018979;28;96615;-55
2022/01/31 08:56:12;;;;;;;0.70;0.70;;;27.40;53.00;;;;;;5017237;28;95463;-57
2022/01/31 08:58:48;;;;;;;1.23;0.70;;;27.40;53.10;;;;;;5009683;27;95999;-53
2022/01/31 09:01:21;;;;;;;0.80;0.80;;;27.40;53.00;;;;;;5011272;27;97126;-51
2022/01/31 09:06:27;;;;;;;0.65;0.65;;;27.40;53.10;;;;;;5015580;28;95627;-51
2022/01/31 09:09:01;;;;;;;0.60;0.60;;;27.40;52.70;;;;;;5015448;28;96476;-53
2022/01/31 09:11:32;;;;;;;0.70;0.70;;;27.40;53.30;;;;;;5019047;27;96375;-53
2022/01/31 09:14:04;;;;;;;0.75;0.75;;;27.40;53.30;;;;;;5015487;28;96115;-52
2022/01/31 09:16:35;;;;;;;0.50;0.50;;;27.40;53.40;;;;;;5005544;28;98309;-54
2022/01/31 09:19:06;;;;;;;0.77;0.70;;;27.40;53.50;;;;;;5014353;28;95829;-57
2022/01/31 09:21:37;;;;;;;0.93;0.90;;;27.40;53.60;;;;;;5014828;28;95858;-55
2022/01/31 09:24:09;;;;;;;;;;;27.40;52.70;;;;;;5013711;27;97128;-55
2022/01/31 09:26:40;;;;;;;0.88;0.88;;;27.40;53.70;;;;;;4980171;28;96102;-54
2022/01/31 09:29:13;;;;;;;0.80;0.80;;;27.40;53.70;;;;;;5012433;27;95727;-54
2022/01/31 09:31:45;;;;;;;0.70;0.70;;;27.40;53.80;;;;;;4994453;28;96037;-55
2022/01/31 09:34:21;;;;;;;1.10;1.00;;;27.40;53.90;;;;;;5017425;28;95811;-52
2022/01/31 09:36:55;;;;;;;0.75;0.75;;;27.30;53.90;;;;;;5015430;28;96488;-53
2022/01/31 09:39:26;;;;;;;1.13;0.90;;;27.30;54.00;;;;;;5016041;28;95797;-54
2022/01/31 09:42:14;;;;;;;0.90;0.90;;;27.30;54.20;;;;;;5016701;28;95986;-54
2022/01/31 09:47:22;;;;;;;0.70;0.70;;;27.30;54.40;;;;;;5014510;27;96250;-52
2022/01/31 09:49:54;;;;;;;0.65;0.65;;;27.30;54.50;;;;;;5022533;28;95371;-51
2022/01/31 09:52:24;;;;;;;0.75;0.75;;;27.30;54.60;;;;;;5016852;28;96012;-52
2022/01/31 09:54:55;;;;;;;0.77;0.77;;;27.30;54.80;;;;;;5022834;28;96629;-51
2022/01/31 09:57:29;;;;;;;1.67;0.77;;;27.20;54.90;;;;;;5012795;28;95917;-55
2022/01/31 10:00:01;;;;;;;0.65;0.65;;;27.20;55.00;;;;;;5018918;28;95852;-54
2022/01/31 10:02:43;;;;;;;0.80;0.80;;;27.20;55.20;;;;;;5017115;28;95712;-55
2022/01/31 10:05:39;;;;;;;0.90;0.90;;;27.20;55.30;;;;;;5025005;27;96609;-53
2022/01/31 10:08:17;;;;;;;0.70;0.70;;;27.20;55.60;;;;;;5031983;27;95874;-54
2022/01/31 10:10:49;;;;;;;2.05;1.45;;;27.20;56.00;;;;;;5013329;27;95941;-44
2022/01/31 10:16:31;;;;;;;3.53;1.85;;;27.30;63.20;;;;;;5010244;27;95832;-50
2022/01/31 10:19:23;;;;;;;4.70;2.10;;;27.30;64.30;;;;;;5017291;27;96482;-45
2022/01/31 10:21:58;;;;;;;2.88;2.20;;;27.30;65.40;;;;;;5023221;27;95740;-45
2022/01/31 10:24:33;;;;;;;2.33;1.90;;;27.20;66.60;;;;;;5032512;27;95411;-44
2022/01/31 10:27:17;;;;;;;3.67;2.10;;;27.10;67.20;;;;;;5014050;27;97480;-45
2022/01/31 10:29:51;;;;;;;2.83;2.15;;;27.00;69.00;;;;;;5024189;27;96150;-45
2022/01/31 10:32:29;;;;;;;3.88;2.22;;;27.00;55.60;;;;;;5021101;27;95405;-45
2022/01/31 10:35:06;;;;;;;3.85;3.13;;;26.80;70.00;;;;;;5025822;27;96096;-45
2022/01/31 10:37:42;;;;;;;2.67;2.47;;;26.70;69.60;;;;;;5029544;27;96003;-46
2022/01/31 10:46:33;;;;;;;;;;;26.60;71.30;;;;;;5016351;27;96112;-45
2022/01/31 10:54:40;;;;;;;3.80;2.50;;;26.40;72.90;;;;;;5019981;27;95767;-49
2022/01/31 10:57:21;;;;;;;3.53;2.35;;;26.40;73.50;;;;;;5027847;27;95496;-46
2022/01/31 11:00:01;;;;;;;11.82;3.22;;;26.30;73.50;;;;;;5030083;27;96088;-45
2022/01/31 11:02:31;;;;;;;4.70;2.60;;;26.20;72.50;;;;;;5018923;27;95954;-47
2022/01/31 11:05:03;;;;;;;5.63;2.22;;;26.20;74.40;;;;;;5020353;27;95724;-44
2022/01/31 11:07:34;;;;;;;4.35;2.72;;;26.10;74.70;;;;;;5001093;28;95748;-50
2022/01/31 11:10:05;;;;;;;3.63;2.75;;;26.00;75.30;;;;;;5019774;27;96102;-49
2022/01/31 11:12:35;;;;;;;4.22;2.50;;;26.00;75.10;;;;;;5026759;27;95425;-44
2022/01/31 11:15:07;;;;;;;6.18;2.55;;;25.80;75.70;;;;;;5004800;27;96043;-44
2022/01/31 11:17:38;;;;;;;3.75;2.70;;;25.80;75.90;;;;;;5028112;27;95791;-44
2022/01/31 11:20:10;;;;;;;2.92;2.72;;;25.80;75.80;;;;;;5022126;27;96519;-45
2022/01/31 11:22:55;;;;;;;4.78;3.25;;;25.70;76.00;;;;;;5017197;27;95941;-44
2022/01/31 11:25:28;;;;;;;4.85;2.53;;;25.70;76.80;;;;;;5021764;27;95669;-45
2022/01/31 11:28:02;;;;;;;3.45;2.60;;;25.60;77.00;;;;;;5022974;27;96156;-45
2022/01/31 11:30:34;;;;;;;3.47;2.65;;;25.60;76.80;;;;;;5024124;27;96666;-45
2022/01/31 11:33:06;;;;;;;5.15;2.80;;;25.50;77.30;;;;;;5026164;27;95480;-45
2022/01/31 11:35:38;;;;;;;3.00;2.80;;;25.40;77.70;;;;;;5031342;27;95253;-46
2022/01/31 11:38:09;;;;;;;3.33;2.88;;;25.40;78.00;;;;;;5023078;27;95859;-45
2022/01/31 11:40:41;;;;;;;3.40;2.83;;;25.30;77.90;;;;;;5028294;27;95706;-44
2022/01/31 11:43:13;;;;;;;3.63;2.83;;;25.30;78.40;;;;;;5029220;27;98380;-44
2022/01/31 11:45:51;;;;;;;5.93;3.40;;;25.20;78.50;;;;;;5023970;27;98196;-44
2022/01/31 11:48:26;;;;;;;3.13;2.88;;;25.10;78.80;;;;;;5037405;27;95826;-44
2022/01/31 11:51:02;;;;;;;7.18;3.17;;;25.00;79.20;;;;;;5028059;27;96580;-44
2022/01/31 11:53:34;;;;;;;8.73;3.50;;;25.00;79.70;;;;;;5033417;27;96069;-44
2022/01/31 11:56:23;;;;;;;9.88;3.13;;;25.00;79.80;;;;;;5020688;27;95718;-45
2022/01/31 11:58:54;;;;;;;11.52;3.40;;;24.90;79.90;;;;;;5038184;27;96121;-44
2022/01/31 12:01:31;;;;;;;7.70;2.90;;;24.90;80.00;;;;;;5023065;27;96528;-45
2022/01/31 12:04:06;;;;;;;4.72;3.25;;;24.80;79.90;;;;;;5034512;27;95641;-44
2022/01/31 12:06:38;;;;;;;5.20;3.65;;;24.70;80.30;;;;;;5031520;27;97154;-47
2022/01/31 12:09:17;;;;;;;9.77;3.10;;;24.70;80.60;;;;;;5032079;27;95793;-44
2022/01/31 12:12:06;;;;;;;8.15;3.40;;;24.60;80.30;;;;;;5008505;28;95956;-44
2022/01/31 12:15:04;;;;;;;8.57;3.78;;;24.60;80.50;;;;;;5026801;27;96058;-44
2022/01/31 12:17:53;;;;;;;4.72;2.92;;;24.50;80.70;;;;;;5007741;27;98906;-49
2022/01/31 12:24:09;;;;;;;10.77;3.50;;;24.40;68.30;;;;;;5021602;27;96445;-44
2022/01/31 12:26:49;;;;;;;3.15;2.78;;;24.30;81.90;;;;;;5027651;27;96040;-45
2022/01/31 12:29:27;;;;;;;7.33;3.20;;;24.20;81.60;;;;;;5035249;27;96813;-44
2022/01/31 12:32:09;;;;;;;4.38;3.08;;;24.20;82.10;;;;;;5029251;27;97216;-44
2022/01/31 12:34:56;;;;;;;4.40;3.00;;;24.20;81.90;;;;;;5023561;28;97015;-44
2022/01/31 12:37:40;;;;;;;11.00;3.72;;;24.20;82.30;;;;;;5026947;27;96280;-44
2022/01/31 12:40:27;;;;;;;8.55;3.28;;;24.20;82.60;;;;;;5036380;27;95877;-44
2022/01/31 12:44:05;;;;;;;6.93;3.20;;;24.20;82.50;;;;;;5027165;28;95366;-44
2022/01/31 12:46:19;;;;;;;6.03;3.05;;;24.20;82.40;;;;;;5020357;27;96373;-44
2022/01/31 12:49:11;;;;;;;5.68;3.15;;;24.20;81.80;;;;;;5027757;27;95772;-45
2022/01/31 12:51:57;;;;;;;4.07;3.17;;;24.10;82.40;;;;;;5019592;27;95649;-44
2022/01/31 12:54:28;;;;;;;6.90;4.13;;;24.00;82.60;;;;;;5033935;27;95973;-43
2022/01/31 12:57:06;;;;;;;5.93;3.67;;;23.80;82.30;;;;;;5029240;27;97094;-43
2022/01/31 12:59:41;;;;;;;7.78;3.80;;;23.60;83.70;;;;;;5019483;27;95767;-43
2022/01/31 13:02:13;;;;;;;4.55;2.97;;;23.60;84.00;;;;;;5023429;27;95774;-43
2022/01/31 13:04:48;;;;;;;5.53;3.75;;;23.70;83.80;;;;;;5028168;27;95788;-43
2022/01/31 13:07:20;;;;;;;6.47;2.92;;;23.70;83.10;;;;;;5012867;28;96687;-43
2022/01/31 13:10:09;;;;;;;9.53;3.63;;;23.60;83.80;;;;;;5032927;27;95809;-43
2022/01/31 13:12:39;;;;;;;9.88;3.60;;;23.50;83.80;;;;;;5030433;27;95623;-44
2022/01/31 13:15:22;;;;;;;5.47;3.63;;;23.50;84.10;;;;;;5031034;27;95332;-43
2022/01/31 13:18:05;;;;;;;6.18;3.33;;;23.40;84.30;;;;;;5026361;27;103363;-43
2022/01/31 13:20:41;;;;;;;7.13;3.35;;;23.40;84.20;;;;;;5026613;28;95446;-43
2022/01/31 13:23:17;;;;;;;7.60;3.33;;;23.20;83.40;;;;;;5026072;28;95755;-43
2022/01/31 13:25:57;;;;;;;12.95;3.20;;;23.10;85.00;;;;;;5033569;27;95867;-43
2022/01/31 13:28:30;;;;;;;13.02;4.00;;;23.10;84.70;;;;;;5035726;27;96573;-43
2022/01/31 13:31:11;;;;;;;11.20;3.33;;;23.10;84.50;;;;;;5026882;27;98343;-43
2022/01/31 13:33:51;;;;;;;11.02;3.28;;;23.10;84.60;;;;;;5028152;27;95518;-44
2022/01/31 13:36:22;;;;;;;3.97;3.58;;;23.10;84.80;;;;;;5035021;27;95596;-44
2022/01/31 13:38:54;;;;;;;9.00;3.67;;;23.20;71.90;;;;;;5025564;27;96881;-44
2022/01/31 13:41:26;;;;;;;;;;;23.10;85.20;;;;;;5038118;27;95496;-45
2022/01/31 13:44:03;;;;;;;7.00;3.33;;;23.10;85.20;;;;;;5034956;27;95901;-46
2022/01/31 13:46:41;;;;;;;5.55;3.20;;;23.10;84.60;;;;;;5034115;27;95777;-44
2022/01/31 13:49:18;;;;;;;5.63;3.60;;;23.00;85.20;;;;;;5030880;27;96607;-44
2022/01/31 13:51:50;;;;;;;7.03;3.40;;;23.10;85.30;;;;;;5035654;27;95282;-44
2022/01/31 13:54:24;;;;;;;5.22;3.92;;;22.80;84.80;;;;;;5016929;27;95764;-44
2022/01/31 13:57:00;;;;;;;11.73;3.97;;;22.70;85.40;;;;;;5038351;27;95433;-44
2022/01/31 13:59:51;;;;;;;6.90;3.67;;;22.80;85.80;;;;;;5028912;27;96519;-45